createdAt,value
2023-01-13T00:01:29.357Z,2.83
2023-01-13T00:04:01.162Z,1.77
2023-01-13T00:06:29.753Z,3.33
2023-01-13T00:08:58.324Z,2.10
2023-01-13T00:11:27.855Z,1.67
2023-01-13T00:13:56.414Z,2.47
2023-01-13T00:16:26.311Z,2.83
2023-01-13T00:18:54.800Z,0.97
2023-01-13T00:21:25.405Z,1.47
2023-01-13T00:23:56.313Z,3.00
2023-01-13T00:26:27.667Z,2.57
2023-01-13T00:28:59.069Z,1.70
2023-01-13T00:31:30.760Z,1.90
2023-01-13T00:34:01.123Z,1.70
2023-01-13T00:36:30.976Z,1.43
2023-01-13T00:38:59.949Z,0.97
2023-01-13T00:41:29.384Z,1.30
2023-01-13T00:43:56.906Z,2.10
2023-01-13T00:46:25.514Z,2.50
2023-01-13T00:48:55.484Z,0.83
2023-01-13T00:51:23.990Z,2.17
2023-01-13T00:53:53.670Z,2.20
2023-01-13T00:56:38.965Z,1.57
2023-01-13T00:59:08.311Z,1.70
2023-01-13T01:01:36.997Z,1.97
2023-01-13T01:04:07.516Z,2.93
2023-01-13T01:06:36.105Z,1.37
2023-01-13T01:09:05.502Z,2.70
2023-01-13T01:11:35.451Z,1.60
2023-01-13T01:14:05.497Z,2.63
2023-01-13T01:16:35.405Z,2.10
2023-01-13T01:19:05.205Z,1.83
2023-01-13T01:21:36.007Z,0.70
2023-01-13T01:24:06.681Z,2.90
2023-01-13T01:26:35.231Z,1.47
2023-01-13T01:29:16.670Z,1.20
2023-01-13T01:31:45.772Z,2.03
2023-01-13T01:34:14.267Z,3.10
2023-01-13T01:36:44.189Z,2.93
2023-01-13T01:39:12.902Z,2.77
2023-01-13T01:42:01.439Z,3.03
2023-01-13T01:44:55.681Z,1.27
2023-01-13T01:47:26.089Z,1.23
2023-01-13T01:49:54.841Z,3.07
2023-01-13T01:52:30.697Z,2.57
2023-01-13T01:55:02.724Z,1.13
2023-01-13T01:57:42.404Z,2.90
2023-01-13T02:00:12.928Z,1.33
2023-01-13T02:02:43.435Z,2.23
2023-01-13T02:05:12.419Z,2.93
2023-01-13T02:07:45.125Z,1.33
2023-01-13T02:10:16.899Z,2.07
2023-01-13T02:12:46.992Z,1.23
2023-01-13T02:15:18.489Z,1.57
2023-01-13T02:18:07.428Z,1.03
2023-01-13T02:21:00.692Z,0.80
2023-01-13T02:24:29.849Z,1.53
2023-01-13T02:27:45.731Z,0.83
2023-01-13T02:30:42.149Z,1.53
2023-01-13T02:33:31.843Z,1.83
2023-01-13T02:36:07.218Z,0.93
2023-01-13T02:38:39.543Z,2.20
2023-01-13T02:41:33.724Z,1.30
2023-01-13T02:44:08.434Z,1.63
2023-01-13T02:46:45.733Z,5.13
2023-01-13T02:49:25.736Z,1.73
2023-01-13T02:52:01.591Z,1.30
2023-01-13T02:54:31.884Z,2.03
2023-01-13T02:57:02.521Z,1.37
2023-01-13T02:59:32.708Z,1.70
2023-01-13T03:02:03.559Z,0.87
2023-01-13T03:04:56.130Z,1.03
2023-01-13T03:08:18.349Z,2.83
2023-01-13T03:11:00.118Z,2.53
2023-01-13T03:13:53.985Z,1.90
2023-01-13T03:16:34.506Z,0.83
2023-01-13T03:19:21.711Z,2.40
2023-01-13T03:21:55.500Z,2.60
2023-01-13T03:24:30.021Z,2.37
2023-01-13T03:27:03.685Z,0.63
2023-01-13T03:29:38.333Z,0.90
2023-01-13T03:32:12.810Z,1.13
2023-01-13T03:34:47.899Z,3.53
2023-01-13T03:37:20.510Z,1.20
2023-01-13T03:39:55.324Z,1.13
2023-01-13T03:42:26.424Z,1.80
2023-01-13T03:44:59.182Z,1.33
2023-01-13T03:47:32.762Z,1.43
2023-01-13T03:50:07.966Z,1.37
2023-01-13T03:52:39.988Z,2.40
2023-01-13T03:55:13.326Z,2.20
2023-01-13T03:57:49.406Z,2.80
2023-01-13T04:00:19.850Z,1.43
2023-01-13T04:02:54.127Z,0.67
2023-01-13T04:05:24.752Z,0.93
2023-01-13T04:08:02.271Z,0.53
2023-01-13T04:10:37.168Z,1.30
2023-01-13T04:13:09.985Z,1.10
2023-01-13T04:15:42.195Z,1.23
2023-01-13T04:18:14.126Z,1.23
2023-01-13T04:20:45.989Z,0.77
2023-01-13T04:23:14.957Z,1.27
2023-01-13T04:25:44.692Z,2.47
2023-01-13T04:28:13.573Z,4.70
2023-01-13T04:30:43.054Z,0.87
2023-01-13T04:33:12.087Z,2.30
2023-01-13T04:35:40.638Z,0.73
2023-01-13T04:38:13.447Z,2.37
2023-01-13T04:40:42.999Z,0.97
2023-01-13T04:43:11.387Z,1.23
2023-01-13T04:45:40.014Z,1.97
2023-01-13T04:48:08.768Z,0.90
2023-01-13T04:50:37.102Z,1.03
2023-01-13T04:53:05.855Z,1.33
2023-01-13T04:55:35.790Z,1.10
2023-01-13T04:58:05.775Z,0.83
2023-01-13T05:00:34.528Z,4.07
2023-01-13T05:03:03.084Z,1.13
2023-01-13T05:05:31.885Z,2.03
2023-01-13T05:08:00.276Z,0.77
2023-01-13T05:10:29.264Z,0.63
2023-01-13T05:13:16.245Z,2.40
2023-01-13T05:16:04.637Z,2.10
2023-01-13T05:18:35.378Z,2.53
2023-01-13T05:21:03.729Z,1.07
2023-01-13T05:23:49.881Z,1.53
2023-01-13T05:26:18.212Z,2.23
2023-01-13T05:28:47.979Z,1.40
2023-01-13T05:31:16.403Z,0.83
2023-01-13T05:33:44.761Z,1.30
2023-01-13T05:36:13.203Z,1.37
2023-01-13T05:38:42.252Z,2.27
2023-01-13T05:41:28.625Z,1.00
2023-01-13T05:43:58.311Z,1.13
2023-01-13T05:46:26.697Z,1.37
2023-01-13T05:48:55.259Z,1.23
2023-01-13T05:51:26.375Z,0.83
2023-01-13T05:53:54.894Z,1.40
2023-01-13T05:56:23.208Z,1.17
2023-01-13T05:58:51.577Z,0.70
2023-01-13T06:01:21.358Z,1.10
2023-01-13T06:03:49.750Z,2.40
2023-01-13T06:06:18.103Z,1.53
2023-01-13T06:08:46.490Z,1.33
2023-01-13T06:11:14.815Z,0.43
2023-01-13T06:13:43.156Z,0.70
2023-01-13T06:16:12.112Z,1.00
2023-01-13T06:18:41.946Z,0.83
2023-01-13T06:21:10.279Z,0.77
2023-01-13T06:23:38.696Z,2.00
2023-01-13T06:26:14.620Z,1.10
2023-01-13T06:28:43.064Z,1.80
2023-01-13T06:31:12.437Z,2.10
2023-01-13T06:33:48.268Z,1.50
2023-01-13T06:36:19.578Z,1.57
2023-01-13T06:38:52.577Z,5.57
2023-01-13T06:41:42.892Z,2.07
2023-01-13T06:44:10.491Z,1.57
2023-01-13T06:46:39.088Z,1.13
2023-01-13T06:49:09.282Z,0.93
2023-01-13T06:51:37.747Z,1.50
2023-01-13T06:54:06.638Z,2.37
2023-01-13T06:56:34.956Z,1.53
2023-01-13T06:59:03.272Z,1.30
2023-01-13T07:01:31.918Z,1.53
2023-01-13T07:04:00.388Z,1.57
2023-01-13T07:06:30.304Z,1.43
2023-01-13T07:08:58.866Z,1.43
2023-01-13T07:11:27.245Z,1.10
2023-01-13T07:14:24.679Z,2.30
2023-01-13T07:16:54.130Z,2.17
2023-01-13T07:19:23.972Z,1.53
2023-01-13T07:21:54.328Z,1.77
2023-01-13T07:24:23.568Z,0.70
2023-01-13T07:26:53.006Z,1.60
2023-01-13T07:29:21.552Z,1.63
2023-01-13T07:31:50.447Z,1.97
2023-01-13T07:34:18.916Z,1.67
2023-01-13T07:36:47.266Z,1.40
2023-01-13T07:39:16.987Z,1.10
2023-01-13T07:42:02.951Z,4.30
2023-01-13T07:44:31.437Z,0.60
2023-01-13T07:46:59.802Z,0.80
2023-01-13T07:49:28.489Z,0.97
2023-01-13T07:51:56.803Z,2.43
2023-01-13T07:54:39.733Z,1.43
2023-01-13T07:57:08.826Z,0.77
2023-01-13T07:59:37.539Z,2.47
2023-01-13T08:02:06.048Z,2.73
2023-01-13T08:04:35.497Z,1.43
2023-01-13T08:07:03.887Z,0.90
2023-01-13T08:09:33.829Z,1.47
2023-01-13T08:12:16.039Z,0.90
2023-01-13T08:14:44.610Z,0.90
2023-01-13T08:17:12.918Z,1.70
2023-01-13T08:19:41.236Z,1.83
2023-01-13T08:22:09.604Z,1.53
2023-01-13T08:24:39.284Z,2.30
2023-01-13T08:27:07.668Z,0.97
2023-01-13T08:29:36.066Z,1.47
2023-01-13T08:32:04.557Z,2.50
2023-01-13T08:34:33.050Z,7.10
2023-01-13T08:37:01.398Z,7.33
2023-01-13T08:39:29.841Z,4.67
2023-01-13T08:41:59.622Z,3.50
2023-01-13T08:44:30.812Z,2.90
2023-01-13T08:47:00.118Z,1.87
2023-01-13T08:49:28.682Z,4.20
2023-01-13T08:51:57.532Z,3.57
2023-01-13T08:54:27.792Z,3.40
2023-01-13T08:56:56.409Z,2.57
2023-01-13T08:59:26.382Z,2.13
2023-01-13T09:01:55.373Z,2.50
2023-01-13T09:04:30.575Z,1.67
2023-01-13T09:06:59.373Z,0.87
2023-01-13T09:09:28.254Z,2.60
2023-01-13T09:12:14.238Z,3.87
2023-01-13T09:14:44.117Z,2.53
2023-01-13T09:17:12.655Z,2.87
2023-01-13T09:19:41.228Z,1.77
2023-01-13T09:22:15.797Z,3.10
2023-01-13T09:24:44.125Z,1.90
2023-01-13T09:27:14.348Z,2.97
2023-01-13T09:29:44.429Z,1.73
2023-01-13T09:32:13.839Z,3.40
2023-01-13T09:35:00.127Z,2.17
2023-01-13T09:37:30.422Z,3.20
2023-01-13T09:39:58.822Z,3.03
2023-01-13T09:42:52.899Z,2.10
2023-01-13T09:45:27.124Z,3.70
2023-01-13T09:48:02.543Z,1.40
2023-01-13T09:50:45.140Z,1.17
2023-01-13T09:53:20.819Z,3.17
2023-01-13T09:55:49.422Z,2.33
2023-01-13T09:58:19.901Z,1.43
2023-01-13T10:01:03.175Z,1.40
2023-01-13T10:03:33.744Z,1.63
2023-01-13T10:06:09.556Z,5.97
2023-01-13T10:08:41.500Z,4.47
2023-01-13T10:11:34.615Z,2.37
2023-01-13T10:14:11.263Z,2.83
2023-01-13T10:16:48.204Z,4.20
2023-01-13T10:19:22.738Z,3.27
2023-01-13T10:22:25.783Z,2.67
2023-01-13T10:25:20.954Z,2.23
2023-01-13T10:27:51.084Z,1.97
2023-01-13T10:30:23.326Z,2.33
2023-01-13T10:32:58.020Z,2.47
2023-01-13T10:35:55.054Z,4.27
2023-01-13T10:38:27.124Z,4.13
2023-01-13T10:40:58.452Z,2.60
2023-01-13T10:43:28.138Z,5.50
2023-01-13T10:46:05.055Z,2.57
2023-01-13T10:48:39.104Z,5.90
2023-01-13T10:51:29.647Z,3.37
2023-01-13T10:54:01.773Z,6.77
2023-01-13T10:56:34.003Z,4.73
2023-01-13T10:59:18.493Z,5.27
2023-01-13T11:02:01.120Z,2.93
2023-01-13T11:04:36.677Z,3.97
2023-01-13T11:07:07.270Z,5.93
2023-01-13T11:09:35.755Z,3.27
2023-01-13T11:12:04.212Z,6.23
2023-01-13T11:14:42.463Z,5.70
2023-01-13T11:17:33.783Z,4.10
2023-01-13T11:20:18.687Z,6.47
2023-01-13T11:22:50.014Z,5.37
2023-01-13T11:25:24.616Z,4.87
2023-01-13T11:28:00.796Z,4.13
2023-01-13T11:30:39.955Z,5.50
2023-01-13T11:33:30.089Z,7.53
2023-01-13T11:36:10.017Z,3.53
2023-01-13T11:38:49.331Z,5.10
2023-01-13T11:41:36.616Z,4.63
2023-01-13T11:44:24.001Z,6.27
2023-01-13T11:46:53.913Z,7.43
2023-01-13T11:49:27.675Z,3.60
2023-01-13T11:52:04.785Z,4.63
2023-01-13T11:55:08.101Z,5.07
2023-01-13T11:57:53.464Z,4.83
2023-01-13T12:01:09.987Z,7.33
2023-01-13T12:03:44.883Z,5.77
2023-01-13T12:06:24.123Z,9.63
2023-01-13T12:09:24.399Z,11.17
2023-01-13T12:12:27.409Z,10.63
2023-01-13T12:15:46.371Z,4.60
2023-01-13T12:18:33.128Z,9.97
2023-01-13T12:21:20.685Z,9.83
2023-01-13T12:24:00.981Z,8.53
2023-01-13T12:26:35.925Z,8.60
2023-01-13T12:29:09.108Z,12.17
2023-01-13T12:31:39.945Z,11.60
2023-01-13T12:34:34.824Z,10.37
2023-01-13T12:37:14.695Z,8.27
2023-01-13T12:39:57.455Z,12.87
2023-01-13T12:42:56.071Z,15.17
2023-01-13T12:45:30.368Z,14.97
2023-01-13T12:47:59.967Z,18.03
2023-01-13T12:50:43.724Z,13.70
2023-01-13T12:53:36.782Z,8.77
2023-01-13T12:56:29.790Z,12.80
2023-01-13T12:59:41.639Z,8.10
2023-01-13T13:02:32.355Z,6.50
2023-01-13T13:05:38.607Z,4.27
2023-01-13T13:08:16.318Z,6.27
2023-01-13T13:11:02.043Z,4.20
2023-01-13T13:13:47.113Z,4.87
2023-01-13T13:16:47.349Z,3.00
2023-01-13T13:22:54.707Z,6.20
2023-01-13T13:25:30.990Z,5.50
2023-01-13T13:28:20.576Z,3.40
2023-01-13T13:31:07.907Z,4.10
2023-01-13T13:33:50.810Z,8.70
2023-01-13T13:36:52.921Z,5.40
2023-01-13T13:39:45.523Z,4.00
2023-01-13T13:42:37.685Z,7.43
2023-01-13T13:45:35.235Z,3.90
2023-01-13T13:48:26.198Z,3.57
2023-01-13T13:51:02.222Z,5.37
2023-01-13T13:53:34.735Z,5.57
2023-01-13T13:56:05.578Z,4.37
2023-01-13T13:58:37.059Z,6.00
2023-01-13T14:01:06.607Z,10.10
2023-01-13T14:03:40.051Z,5.10
2023-01-13T14:06:24.385Z,5.17
2023-01-13T14:08:52.722Z,5.60
2023-01-13T14:11:28.954Z,8.40
2023-01-13T14:14:06.190Z,3.97
2023-01-13T14:16:36.392Z,4.30
2023-01-13T14:19:04.969Z,4.57
2023-01-13T14:21:34.970Z,4.47
2023-01-13T14:24:11.864Z,6.23
2023-01-13T14:26:40.280Z,6.53
2023-01-13T14:29:10.233Z,3.70
2023-01-13T14:31:40.772Z,3.03
2023-01-13T14:34:31.469Z,4.90
2023-01-13T14:37:01.224Z,6.47
2023-01-13T14:39:38.962Z,4.13
2023-01-13T14:42:14.214Z,4.67
2023-01-13T14:44:48.821Z,4.33
2023-01-13T14:47:25.253Z,7.73
2023-01-13T14:50:02.327Z,9.87
2023-01-13T14:52:34.161Z,6.33
2023-01-13T14:55:25.739Z,9.97
2023-01-13T14:57:54.262Z,5.53
2023-01-13T15:00:25.784Z,5.20
2023-01-13T15:03:08.737Z,3.70
2023-01-13T15:05:49.362Z,4.93
2023-01-13T15:08:30.337Z,6.03
2023-01-13T15:11:00.911Z,3.07
2023-01-13T15:13:38.392Z,2.37
2023-01-13T15:16:12.810Z,5.23
2023-01-13T15:18:41.335Z,3.23
2023-01-13T15:21:10.214Z,3.73
2023-01-13T15:23:41.210Z,2.03
2023-01-13T15:26:25.529Z,4.07
2023-01-13T15:28:55.559Z,4.03
2023-01-13T15:31:24.907Z,7.07
2023-01-13T15:33:53.308Z,5.30
2023-01-13T15:36:29.048Z,7.43
2023-01-13T15:38:59.980Z,5.90
2023-01-13T15:41:46.303Z,5.63
2023-01-13T15:44:34.449Z,5.83
2023-01-13T15:47:07.982Z,3.43
2023-01-13T15:49:40.091Z,7.13
2023-01-13T15:52:21.383Z,5.37
2023-01-13T15:54:51.869Z,8.23
2023-01-13T15:57:23.820Z,3.93
2023-01-13T15:59:54.601Z,4.90
2023-01-13T16:02:23.654Z,4.90
2023-01-13T16:04:53.867Z,8.03
2023-01-13T16:07:24.519Z,6.30
2023-01-13T16:09:54.484Z,3.37
2023-01-13T16:12:22.864Z,6.33
2023-01-13T16:14:51.197Z,5.70
2023-01-13T16:17:23.003Z,3.80
2023-01-13T16:19:51.863Z,3.07
2023-01-13T16:22:20.256Z,5.90
2023-01-13T16:24:49.300Z,4.27
2023-01-13T16:27:21.075Z,5.43
2023-01-13T16:29:51.197Z,5.60
2023-01-13T16:32:20.982Z,4.20
2023-01-13T16:34:49.591Z,4.57
2023-01-13T16:37:25.307Z,4.20
2023-01-13T16:39:55.383Z,4.17
2023-01-13T16:42:25.080Z,4.93
2023-01-13T16:44:53.429Z,2.80
2023-01-13T16:47:24.018Z,5.00
2023-01-13T16:49:52.489Z,7.43
2023-01-13T16:52:20.993Z,2.10
2023-01-13T16:54:49.349Z,6.60
2023-01-13T16:57:17.683Z,7.03
2023-01-13T16:59:47.440Z,4.23
2023-01-13T17:02:20.203Z,6.37
2023-01-13T17:04:49.296Z,6.77
2023-01-13T17:07:19.011Z,4.33
2023-01-13T17:09:47.370Z,4.30
2023-01-13T17:12:15.806Z,8.30
2023-01-13T17:14:44.407Z,2.80
2023-01-13T17:17:24.762Z,3.73
2023-01-13T17:19:53.965Z,5.13
2023-01-13T17:22:23.139Z,4.10
2023-01-13T17:24:51.516Z,4.97
2023-01-13T17:27:21.229Z,4.43
2023-01-13T17:29:49.673Z,4.67
2023-01-13T17:32:20.689Z,8.10
2023-01-13T17:34:49.140Z,4.50
2023-01-13T17:37:18.073Z,5.63
2023-01-13T17:39:48.367Z,4.23
2023-01-13T17:42:17.116Z,2.73
2023-01-13T17:44:45.487Z,4.50
2023-01-13T17:47:13.907Z,7.63
2023-01-13T17:49:43.619Z,4.23
2023-01-13T17:52:11.958Z,6.40
2023-01-13T17:54:43.104Z,4.53
2023-01-13T17:57:11.691Z,4.80
2023-01-13T17:59:41.475Z,5.93
2023-01-13T18:02:13.581Z,5.40
2023-01-13T18:04:43.537Z,4.33
2023-01-13T18:07:11.858Z,4.43
2023-01-13T18:09:40.175Z,5.40
2023-01-13T18:12:08.654Z,5.13
2023-01-13T18:14:37.049Z,6.10
2023-01-13T18:17:05.503Z,5.67
2023-01-13T18:19:51.478Z,5.37
2023-01-13T18:22:38.600Z,7.03
2023-01-13T18:25:29.368Z,5.93
2023-01-13T18:27:57.895Z,6.30
2023-01-13T18:30:26.626Z,5.27
2023-01-13T18:32:55.456Z,6.17
2023-01-13T18:35:23.781Z,4.63
2023-01-13T18:37:53.483Z,7.23
2023-01-13T18:40:21.949Z,4.57
2023-01-13T18:42:53.234Z,8.53
2023-01-13T18:45:24.480Z,7.53
2023-01-13T18:47:53.765Z,6.53
2023-01-13T18:50:22.508Z,5.00
2023-01-13T18:52:51.291Z,9.23
2023-01-13T18:55:21.363Z,10.77
2023-01-13T18:57:50.321Z,7.73
2023-01-13T19:00:21.631Z,5.97
2023-01-13T19:05:38.239Z,7.97
2023-01-13T19:08:07.179Z,5.40
2023-01-13T19:10:37.605Z,10.17
2023-01-13T19:13:05.915Z,4.90
2023-01-13T19:15:37.379Z,5.23
2023-01-13T19:18:06.051Z,7.57
2023-01-13T19:20:34.445Z,5.73
2023-01-13T19:23:02.730Z,7.67
2023-01-13T19:25:31.098Z,4.67
2023-01-13T19:28:00.774Z,4.23
2023-01-13T19:30:29.157Z,4.43
2023-01-13T19:32:57.877Z,4.97
2023-01-13T19:35:26.247Z,5.43
2023-01-13T19:37:54.522Z,4.57
2023-01-13T19:40:22.808Z,5.50
2023-01-13T19:43:08.797Z,8.20
2023-01-13T19:45:38.492Z,5.57
2023-01-13T19:48:08.513Z,5.47
2023-01-13T19:50:38.620Z,8.23
2023-01-13T19:53:07.259Z,11.67
2023-01-13T19:55:35.756Z,8.17
2023-01-13T19:58:04.229Z,6.27
2023-01-13T20:00:32.601Z,7.03
2023-01-13T20:03:04.326Z,7.87
2023-01-13T20:05:32.783Z,6.63
2023-01-13T20:08:01.066Z,6.40
2023-01-13T20:10:31.405Z,6.17
2023-01-13T20:13:00.168Z,6.40
2023-01-13T20:15:28.812Z,10.10
2023-01-13T20:17:58.475Z,6.17
2023-01-13T20:20:28.276Z,5.97
2023-01-13T20:22:58.145Z,5.47
2023-01-13T20:25:28.569Z,6.90
2023-01-13T20:27:58.585Z,3.90
2023-01-13T20:30:26.948Z,5.40
2023-01-13T20:32:55.282Z,4.57
2023-01-13T20:35:24.363Z,7.37
2023-01-13T20:37:54.036Z,4.27
2023-01-13T20:40:23.086Z,8.27
2023-01-13T20:42:51.821Z,5.97
2023-01-13T20:45:21.660Z,6.50
2023-01-13T20:47:50.217Z,4.83
2023-01-13T20:50:18.927Z,3.60
2023-01-13T20:52:47.876Z,5.83
2023-01-13T20:55:17.772Z,5.03
2023-01-13T20:57:48.756Z,5.90
2023-01-13T21:00:18.739Z,3.40
2023-01-13T21:02:47.046Z,6.33
2023-01-13T21:05:15.574Z,5.40
2023-01-13T21:07:43.886Z,3.87
2023-01-13T21:10:12.764Z,3.70
2023-01-13T21:13:00.554Z,4.47
2023-01-13T21:18:52.895Z,4.57
2023-01-13T21:21:37.738Z,6.70
2023-01-13T21:24:07.169Z,5.40
2023-01-13T21:26:38.384Z,6.23
2023-01-13T21:29:14.419Z,5.07
2023-01-13T21:31:45.896Z,4.03
2023-01-13T21:34:17.446Z,4.57
2023-01-13T21:36:46.313Z,8.60
2023-01-13T21:39:20.431Z,6.83
2023-01-13T21:42:23.875Z,4.47
2023-01-13T21:45:30.954Z,6.20
2023-01-13T21:48:07.446Z,6.97
2023-01-13T21:50:39.719Z,5.77
2023-01-13T21:53:13.431Z,6.13
2023-01-13T21:55:51.418Z,5.70
2023-01-13T21:58:22.088Z,3.73
2023-01-13T22:00:52.656Z,9.00
2023-01-13T22:03:23.625Z,7.23
2023-01-13T22:05:56.982Z,5.70
2023-01-13T22:08:25.747Z,3.17
2023-01-13T22:11:00.942Z,6.03
2023-01-13T22:13:49.966Z,5.37
2023-01-13T22:16:20.624Z,6.97
2023-01-13T22:19:20.919Z,3.93
2023-01-13T22:22:17.364Z,4.77
2023-01-13T22:25:04.747Z,4.07
2023-01-13T22:27:53.700Z,3.97
2023-01-13T22:30:47.063Z,6.93
2023-01-13T22:33:47.399Z,4.00
2023-01-13T22:36:54.713Z,7.07
2023-01-13T22:42:07.085Z,3.50
2023-01-13T22:44:35.779Z,7.57
2023-01-13T22:47:04.943Z,5.60
2023-01-13T22:49:35.050Z,3.37
2023-01-13T22:52:06.005Z,4.10
2023-01-13T22:54:34.796Z,5.83
2023-01-13T22:57:03.428Z,4.20
2023-01-13T22:59:32.894Z,5.90
2023-01-13T23:02:01.549Z,6.77
2023-01-13T23:04:38.126Z,9.73
2023-01-13T23:07:08.023Z,7.27
2023-01-13T23:09:36.605Z,7.73
2023-01-13T23:12:07.232Z,7.40
2023-01-13T23:14:35.760Z,9.07
2023-01-13T23:17:04.668Z,7.43
2023-01-13T23:19:33.474Z,4.63
2023-01-13T23:22:05.138Z,7.20
2023-01-13T23:24:35.169Z,6.97
2023-01-13T23:27:03.666Z,10.37
2023-01-13T23:29:32.129Z,5.40
2023-01-13T23:32:00.917Z,5.33
2023-01-13T23:34:29.652Z,6.93
2023-01-13T23:36:58.280Z,6.70
2023-01-13T23:39:27.102Z,5.23
2023-01-13T23:41:57.055Z,6.20
2023-01-13T23:44:25.644Z,8.03
2023-01-13T23:46:54.147Z,5.00
2023-01-13T23:49:22.855Z,7.10
2023-01-13T23:51:51.917Z,6.40
2023-01-13T23:54:21.163Z,6.40
2023-01-13T23:56:52.592Z,6.03
2023-01-13T23:59:23.278Z,9.10
